»·PEaware :: AAL454 KBOI-KPDX

AAL454 :: KBOI-KPDX

FLIGHT INFORMATION

Flight Status: Arrived
Operator:
American Airlines
More flights by this operator :: More flights under this callsign
Pilot: Sergei F. (8485)
Aircraft: AIRBUS A320
(A320)
More flights by this aircraft type
Origin: KBOI Boise Air Terminal/Gowen
United States
Destination: KPDX Portland Intl
United States
More flights between these airports :: More routes between these airports
Route: +BOI3 SAILL JOTBA HHOOD4
File this flight plan on PilotEdge
Remarks:
Altitude:
(Current/Filed)
32,000ft
Speed:
(Current/Filed)
300kts
Departed: 07-Apr-18 08:47 PM
Arrived: 07-Apr-18 09:47 PM
Distance/Time
Traveled:
298nm/1:00
Distance/Time
To Go:
Arrived

Flight Plot

Page will automatically refresh every two minutes.

Flight plan parsing failed; only flown route is shown


Map Options




Map Legend


Flown Route
Filed Route
Departure Airport
Arrival Airport
Navaid (VOR, NDB)
Fix

Horizontal Profiles

Position Reports

Time Latitude Longitude Heading Altitude Ground
Speed
07-Apr-18 20:09 43.567013 -116.219740 30 2853ft 0kts
07-Apr-18 20:10 43.567013 -116.219740 30 2853ft 0kts
07-Apr-18 20:11 43.567013 -116.219740 30 2853ft 0kts
07-Apr-18 20:12 43.567013 -116.219740 30 2853ft 0kts
07-Apr-18 20:13 43.567013 -116.219740 30 2853ft 0kts
07-Apr-18 20:14 43.567013 -116.219740 30 2853ft 0kts
07-Apr-18 20:15 43.567013 -116.219740 30 2853ft 0kts
07-Apr-18 20:16 43.567013 -116.219740 30 2853ft 0kts
07-Apr-18 20:17 43.567013 -116.219740 30 2853ft 0kts
07-Apr-18 20:18 43.567013 -116.219740 30 2853ft 0kts
07-Apr-18 20:19 43.567013 -116.219740 30 2853ft 0kts
07-Apr-18 20:20 43.567013 -116.219740 30 2853ft 0kts
07-Apr-18 20:21 43.567013 -116.219740 30 2853ft 0kts
07-Apr-18 20:22 43.567013 -116.219740 30 2853ft 0kts
07-Apr-18 20:23 43.567013 -116.219740 30 2853ft 0kts
07-Apr-18 20:24 43.567013 -116.219740 30 2853ft 0kts
07-Apr-18 20:25 43.567013 -116.219740 30 2853ft 0kts
07-Apr-18 20:26 43.567013 -116.219740 30 2853ft 0kts
07-Apr-18 20:27 43.567013 -116.219740 30 2853ft 0kts
07-Apr-18 20:28 43.567013 -116.219740 30 2853ft 0kts
07-Apr-18 20:29 43.567013 -116.219740 30 2853ft 0kts
07-Apr-18 20:30 43.567013 -116.219740 30 2853ft 0kts
07-Apr-18 20:31 43.567013 -116.219740 30 2853ft 0kts
07-Apr-18 20:32 43.567013 -116.219740 30 2853ft 0kts
07-Apr-18 20:33 43.567013 -116.219740 30 2853ft 0kts
07-Apr-18 20:34 43.567013 -116.219740 30 2853ft 0kts
07-Apr-18 20:35 43.567013 -116.219740 30 2853ft 0kts
07-Apr-18 20:36 43.565978 -116.220808 295 2854ft 0kts
07-Apr-18 20:37 43.565978 -116.220808 295 2854ft 0kts
07-Apr-18 20:38 43.565979 -116.220812 294 2854ft 0kts
07-Apr-18 20:39 43.565982 -116.220820 293 2854ft 0kts
07-Apr-18 20:40 43.566654 -116.222789 295 2851ft 13kts
07-Apr-18 20:41 43.568096 -116.227013 295 2846ft 11kts
07-Apr-18 20:42 43.569471 -116.231043 295 2839ft 13kts
07-Apr-18 20:43 43.570921 -116.235324 289 2831ft 6kts
07-Apr-18 20:44 43.570587 -116.236077 201 2831ft 6kts
07-Apr-18 20:45 43.569934 -116.235981 111 2832ft 0kts
07-Apr-18 20:46 43.565216 -116.222209 115 2853ft 108kts
07-Apr-18 20:47 43.546597 -116.165778 118 4073ft 204kts
07-Apr-18 20:48 43.521072 -116.081749 112 5870ft 276kts
07-Apr-18 20:49 43.490981 -115.979265 116 8268ft 302kts
07-Apr-18 20:50 43.447926 -115.879174 157 10345ft 318kts
07-Apr-18 20:51 43.371734 -115.913482 247 11221ft 333kts
07-Apr-18 20:52 43.388659 -116.040419 291 12268ft 368kts
07-Apr-18 20:53 43.429904 -116.170297 290 14025ft 374kts
07-Apr-18 20:54 43.471744 -116.301569 290 15574ft 380kts
07-Apr-18 20:55 43.514299 -116.435436 290 16973ft 386kts
07-Apr-18 20:56 43.557218 -116.571084 290 18245ft 391kts
07-Apr-18 20:57 43.600470 -116.708482 289 19433ft 396kts
07-Apr-18 20:58 43.644151 -116.847974 289 20529ft 400kts
07-Apr-18 20:59 43.689787 -116.989594 288 21413ft 408kts
07-Apr-18 21:00 43.736890 -117.134012 296 22146ft 423kts
07-Apr-18 21:01 43.799096 -117.272761 296 22998ft 427kts
07-Apr-18 21:02 43.861539 -117.413257 296 23752ft 431kts
07-Apr-18 21:03 43.924659 -117.555966 296 24437ft 435kts
07-Apr-18 21:04 43.987251 -117.698180 295 25048ft 438kts
07-Apr-18 21:05 44.050931 -117.843594 295 25673ft 439kts
07-Apr-18 21:06 44.113162 -117.986420 295 26405ft 437kts
07-Apr-18 21:07 44.175758 -118.130796 295 27099ft 435kts
07-Apr-18 21:08 44.237611 -118.274173 295 27776ft 433kts
07-Apr-18 21:09 44.298959 -118.417084 295 28438ft 431kts
07-Apr-18 21:10 44.359855 -118.559659 295 29079ft 428kts
07-Apr-18 21:11 44.418838 -118.698425 294 29713ft 426kts
07-Apr-18 21:12 44.478466 -118.839420 294 30352ft 425kts
07-Apr-18 21:13 44.538341 -118.981686 295 30770ft 428kts
07-Apr-18 21:14 44.598711 -119.125850 295 31220ft 429kts
07-Apr-18 21:15 44.658212 -119.268682 295 31800ft 427kts
07-Apr-18 21:16 44.717660 -119.412094 295 31898ft 426kts
07-Apr-18 21:17 44.767098 -119.531920 295 31898ft 427kts
07-Apr-18 21:18 44.825800 -119.674860 294 31894ft 426kts
07-Apr-18 21:19 44.894250 -119.842461 294 31874ft 426kts
07-Apr-18 21:20 44.953052 -119.987237 294 31798ft 426kts
07-Apr-18 21:21 45.011587 -120.132110 294 31797ft 426kts
07-Apr-18 21:22 45.060299 -120.253238 294 31812ft 426kts
07-Apr-18 21:23 45.117890 -120.397129 294 31714ft 426kts
07-Apr-18 21:24 45.175856 -120.542933 293 29225ft 427kts
07-Apr-18 21:25 45.231794 -120.688053 293 26511ft 427kts
07-Apr-18 21:26 45.288805 -120.836457 293 23663ft 427kts
07-Apr-18 21:27 45.344610 -120.982516 292 20820ft 425kts
07-Apr-18 21:28 45.398444 -121.124019 292 16988ft 393kts
07-Apr-18 21:29 45.439699 -121.259433 279 15455ft 350kts
07-Apr-18 21:30 45.464182 -121.383479 278 14783ft 302kts
07-Apr-18 21:31 45.485745 -121.492624 278 13515ft 283kts
07-Apr-18 21:32 45.506658 -121.598549 277 11986ft 275kts
07-Apr-18 21:33 45.526347 -121.698808 278 10970ft 252kts
07-Apr-18 21:34 45.532314 -121.792699 267 9895ft 233kts
07-Apr-18 21:35 45.535577 -121.883975 266 8727ft 233kts
07-Apr-18 21:36 45.539140 -121.978293 267 7535ft 241kts
07-Apr-18 21:37 45.544633 -122.072760 268 6751ft 233kts
07-Apr-18 21:38 45.550124 -122.164981 268 6688ft 230kts
07-Apr-18 21:39 45.550996 -122.254846 236 5416ft 221kts
07-Apr-18 21:40 45.499976 -122.299562 206 4071ft 219kts
07-Apr-18 21:41 45.479783 -122.367831 309 3310ft 227kts
07-Apr-18 21:42 45.524196 -122.413883 296 2460ft 176kts
07-Apr-18 21:43 45.545822 -122.469805 295 1580ft 161kts
07-Apr-18 21:44 45.567412 -122.525302 295 727ft 160kts
07-Apr-18 21:45 45.588354 -122.579140 296 26ft 109kts
07-Apr-18 21:46 45.592112 -122.591253 269 26ft 1kts
07-Apr-18 21:47 45.592360 -122.594785 299 27ft 14kts
07-Apr-18 21:48 45.592044 -122.596440 192 26ft 0kts
07-Apr-18 21:49 45.592044 -122.596440 192 26ft 0kts

Navigation Log

Ident Type
Flight plan parsing failed, navigation log unavailable